QTR24G OTHH-OOMS
Flight info
| Callsign | QTR24G |
|---|---|
| Flight time | N/A |
| Altitude | 33000 |
| Route | KUPRO N300 GIDOB N685 RURAL B415 SIXIV N318 LAKLU |
| Aircraft | A320/M-SDE3FGHIRWY/LB1 |
Departure
| Time | N/A |
|---|---|
| Airport | Hamad International Airport (OTHH) |
Arrival
| Time | 2026-05-07 13:38 |
|---|---|
| Airport | Muscat International Airport (OOMS) |
| Time | Latitude | Longitude | Altitude | Speed | Heading |
|---|---|---|---|---|---|
| 2026-05-07 13:20 | 23.48162 | 56.85138 | 23963 ft | 418 kts | 118° |
| 2026-05-07 13:20 | 23.46797 | 56.87946 | 23613 ft | 414 kts | 117° |
| 2026-05-07 13:20 | 23.45459 | 56.90695 | 22894 ft | 409 kts | 117° |
| 2026-05-07 13:21 | 23.44138 | 56.93406 | 22211 ft | 400 kts | 117° |
| 2026-05-07 13:21 | 23.42856 | 56.96031 | 21788 ft | 385 kts | 117° |
| 2026-05-07 13:21 | 23.41616 | 56.98564 | 21341 ft | 376 kts | 117° |
| 2026-05-07 13:21 | 23.40387 | 57.01070 | 20892 ft | 375 kts | 117° |
| 2026-05-07 13:22 | 23.39222 | 57.03597 | 20440 ft | 373 kts | 111° |
| 2026-05-07 13:22 | 23.38520 | 57.06296 | 19986 ft | 370 kts | 98° |
| 2026-05-07 13:22 | 23.38379 | 57.09075 | 19579 ft | 366 kts | 85° |
| 2026-05-07 13:22 | 23.38777 | 57.11788 | 19196 ft | 362 kts | 74° |
| 2026-05-07 13:23 | 23.39376 | 57.14430 | 18930 ft | 355 kts | 75° |
| 2026-05-07 13:23 | 23.39950 | 57.16998 | 18871 ft | 343 kts | 76° |
| 2026-05-07 13:23 | 23.40508 | 57.19511 | 18880 ft | 341 kts | 75° |
| 2026-05-07 13:23 | 23.41065 | 57.22015 | 18401 ft | 340 kts | 76° |
| 2026-05-07 13:24 | 23.41633 | 57.24556 | 17288 ft | 348 kts | 76° |
| 2026-05-07 13:24 | 23.42199 | 57.27108 | 16908 ft | 344 kts | 76° |
| 2026-05-07 13:24 | 23.42755 | 57.29618 | 16556 ft | 338 kts | 76° |
| 2026-05-07 13:24 | 23.43304 | 57.32092 | 16202 ft | 334 kts | 77° |
| 2026-05-07 13:25 | 23.43848 | 57.34536 | 15853 ft | 331 kts | 77° |
| 2026-05-07 13:25 | 23.44393 | 57.36993 | 15493 ft | 327 kts | 77° |
| 2026-05-07 13:25 | 23.44917 | 57.39359 | 15134 ft | 324 kts | 77° |
| 2026-05-07 13:25 | 23.45441 | 57.41732 | 14791 ft | 321 kts | 77° |
| 2026-05-07 13:26 | 23.45965 | 57.44096 | 14450 ft | 318 kts | 77° |
| 2026-05-07 13:26 | 23.46483 | 57.46424 | 14110 ft | 315 kts | 78° |
| 2026-05-07 13:26 | 23.46992 | 57.48731 | 13784 ft | 313 kts | 78° |
| 2026-05-07 13:26 | 23.47496 | 57.51027 | 13414 ft | 311 kts | 77° |
| 2026-05-07 13:27 | 23.47993 | 57.53301 | 13112 ft | 307 kts | 78° |
| 2026-05-07 13:27 | 23.48368 | 57.55563 | 12886 ft | 300 kts | 88° |
| 2026-05-07 13:27 | 23.48395 | 57.57832 | 12822 ft | 302 kts | 90° |
| 2026-05-07 13:27 | 23.48400 | 57.60124 | 12730 ft | 302 kts | 90° |
| 2026-05-07 13:28 | 23.48408 | 57.62410 | 11985 ft | 303 kts | 90° |
| 2026-05-07 13:28 | 23.48418 | 57.64715 | 11474 ft | 305 kts | 90° |
| 2026-05-07 13:28 | 23.48427 | 57.67023 | 11100 ft | 304 kts | 90° |
| 2026-05-07 13:28 | 23.48436 | 57.69255 | 10970 ft | 285 kts | 91° |
| 2026-05-07 13:29 | 23.48444 | 57.71357 | 10705 ft | 272 kts | 91° |
| 2026-05-07 13:29 | 23.48452 | 57.73409 | 10246 ft | 270 kts | 90° |
| 2026-05-07 13:29 | 23.48457 | 57.75457 | 9750 ft | 270 kts | 90° |
| 2026-05-07 13:29 | 23.48459 | 57.77502 | 9298 ft | 271 kts | 90° |
| 2026-05-07 13:30 | 23.48461 | 57.79552 | 8933 ft | 271 kts | 90° |
| 2026-05-07 13:30 | 23.48466 | 57.81598 | 8578 ft | 270 kts | 89° |
| 2026-05-07 13:30 | 23.48471 | 57.83644 | 8328 ft | 268 kts | 89° |
| 2026-05-07 13:30 | 23.48476 | 57.85678 | 8240 ft | 269 kts | 88° |
| 2026-05-07 13:31 | 23.48841 | 57.87640 | 8124 ft | 264 kts | 60° |
| 2026-05-07 13:31 | 23.50054 | 57.89073 | 7915 ft | 260 kts | 29° |
| 2026-05-07 13:31 | 23.51782 | 57.89594 | 7433 ft | 260 kts | 360° |
| 2026-05-07 13:31 | 23.53563 | 57.89692 | 7274 ft | 253 kts | 0° |
| 2026-05-07 13:32 | 23.55294 | 57.89864 | 6860 ft | 249 kts | 13° |
| 2026-05-07 13:32 | 23.56768 | 57.90819 | 6370 ft | 251 kts | 48° |
| 2026-05-07 13:32 | 23.57474 | 57.92541 | 5879 ft | 256 kts | 85° |
| 2026-05-07 13:32 | 23.57143 | 57.94433 | 5512 ft | 258 kts | 114° |
| 2026-05-07 13:33 | 23.56507 | 57.96277 | 5199 ft | 256 kts | 95° |
| 2026-05-07 13:33 | 23.56701 | 57.98169 | 4900 ft | 252 kts | 75° |
| 2026-05-07 13:33 | 23.56999 | 58.00045 | 4595 ft | 252 kts | 82° |
| 2026-05-07 13:33 | 23.57161 | 58.01948 | 4279 ft | 252 kts | 83° |
| 2026-05-07 13:34 | 23.57308 | 58.03849 | 3949 ft | 252 kts | 83° |
| 2026-05-07 13:34 | 23.57618 | 58.07651 | 3318 ft | 250 kts | 82° |
| 2026-05-07 13:34 | 23.57769 | 58.09503 | 3010 ft | 240 kts | 82° |
| 2026-05-07 13:35 | 23.57914 | 58.11278 | 2727 ft | 230 kts | 82° |
| 2026-05-07 13:35 | 23.58052 | 58.12973 | 2440 ft | 216 kts | 81° |
| 2026-05-07 13:35 | 23.58180 | 58.14556 | 2180 ft | 204 kts | 81° |
| 2026-05-07 13:35 | 23.58302 | 58.16051 | 1909 ft | 191 kts | 81° |
| 2026-05-07 13:36 | 23.58410 | 58.17398 | 1700 ft | 168 kts | 81° |
| 2026-05-07 13:36 | 23.58510 | 58.18620 | 1499 ft | 158 kts | 81° |
| 2026-05-07 13:36 | 23.58607 | 58.19793 | 1308 ft | 154 kts | 81° |
| 2026-05-07 13:36 | 23.58702 | 58.20947 | 1119 ft | 152 kts | 80° |
| 2026-05-07 13:37 | 23.58802 | 58.22093 | 922 ft | 151 kts | 82° |
| 2026-05-07 13:37 | 23.58899 | 58.23226 | 747 ft | 150 kts | 83° |
| 2026-05-07 13:37 | 23.58994 | 58.24348 | 561 ft | 148 kts | 83° |
| 2026-05-07 13:37 | 23.59076 | 58.25461 | 383 ft | 147 kts | 84° |
| 2026-05-07 13:38 | 23.59152 | 58.26569 | 172 ft | 147 kts | 83° |
| 2026-05-07 13:38 | 23.59243 | 58.27667 | 44 ft | 140 kts | 81° |
| 2026-05-07 13:38 | 23.59321 | 58.28530 | 39 ft | 81 kts | 84° |
| 2026-05-07 13:38 | 23.59354 | 58.28994 | 37 ft | 40 kts | 85° |
| 2026-05-07 13:39 | 23.59380 | 58.29278 | 38 ft | 36 kts | 83° |
| 2026-05-07 13:39 | 23.59407 | 58.29547 | 37 ft | 32 kts | 89° |
| 2026-05-07 13:39 | 23.59308 | 58.29660 | 37 ft | 22 kts | 174° |
| 2026-05-07 13:39 | 23.59202 | 58.29626 | 35 ft | 16 kts | 246° |
| 2026-05-07 13:40 | 23.59188 | 58.29495 | 37 ft | 19 kts | 268° |
| 2026-05-07 13:40 | 23.59179 | 58.29345 | 37 ft | 21 kts | 266° |
| 2026-05-07 13:40 | 23.59166 | 58.29184 | 38 ft | 19 kts | 264° |
| 2026-05-07 13:40 | 23.59230 | 58.29088 | 38 ft | 18 kts | 347° |
| 2026-05-07 13:41 | 23.59348 | 58.29038 | 37 ft | 20 kts | 301° |
| 2026-05-07 13:41 | 23.59345 | 58.28884 | 38 ft | 22 kts | 268° |
| 2026-05-07 13:41 | 23.59368 | 58.28715 | 38 ft | 24 kts | 284° |
| 2026-05-07 13:41 | 23.59433 | 58.28555 | 38 ft | 21 kts | 308° |
| 2026-05-07 13:42 | 23.59577 | 58.28522 | 37 ft | 18 kts | 354° |
| 2026-05-07 13:42 | 23.59685 | 58.28519 | 38 ft | 10 kts | 34° |
| 2026-05-07 13:42 | 23.59703 | 58.28596 | 38 ft | 8 kts | 84° |
| 2026-05-07 13:42 | 23.59705 | 58.28618 | 38 ft | 0 kts | 84° |